sensor_id;sensor_type;location;lat;lon;timestamp;P1;durP1;ratioP1;P2;durP2;ratioP2
12332;SDS011;6232;48.094;11.288;2023-02-11T00:02:10;36.50;;;17.87;;
12332;SDS011;6232;48.094;11.288;2023-02-11T00:04:55;32.87;;;16.83;;
12332;SDS011;6232;48.094;11.288;2023-02-11T00:07:41;32.70;;;19.33;;
12332;SDS011;6232;48.094;11.288;2023-02-11T00:10:26;29.53;;;16.00;;
12332;SDS011;6232;48.094;11.288;2023-02-11T00:13:12;33.27;;;16.90;;
12332;SDS011;6232;48.094;11.288;2023-02-11T00:15:57;30.70;;;14.73;;
12332;SDS011;6232;48.094;11.288;2023-02-11T00:18:43;31.30;;;14.13;;
12332;SDS011;6232;48.094;11.288;2023-02-11T00:21:28;34.83;;;18.50;;
12332;SDS011;6232;48.094;11.288;2023-02-11T00:24:14;29.90;;;16.10;;
12332;SDS011;6232;48.094;11.288;2023-02-11T00:26:59;32.57;;;16.43;;
12332;SDS011;6232;48.094;11.288;2023-02-11T00:29:45;30.87;;;16.37;;
12332;SDS011;6232;48.094;11.288;2023-02-11T00:32:31;43.23;;;17.50;;
12332;SDS011;6232;48.094;11.288;2023-02-11T00:35:16;54.93;;;23.30;;
12332;SDS011;6232;48.094;11.288;2023-02-11T00:38:02;52.63;;;23.50;;
12332;SDS011;6232;48.094;11.288;2023-02-11T00:40:48;37.13;;;20.60;;
12332;SDS011;6232;48.094;11.288;2023-02-11T00:43:34;27.57;;;16.13;;
12332;SDS011;6232;48.094;11.288;2023-02-11T00:46:19;46.03;;;19.80;;
12332;SDS011;6232;48.094;11.288;2023-02-11T00:49:05;42.20;;;19.90;;
12332;SDS011;6232;48.094;11.288;2023-02-11T00:51:50;40.33;;;19.27;;
12332;SDS011;6232;48.094;11.288;2023-02-11T00:54:36;35.07;;;18.77;;
12332;SDS011;6232;48.094;11.288;2023-02-11T00:57:22;34.50;;;17.73;;
12332;SDS011;6232;48.094;11.288;2023-02-11T01:00:08;27.80;;;14.83;;
12332;SDS011;6232;48.094;11.288;2023-02-11T01:02:53;26.70;;;16.07;;
12332;SDS011;6232;48.094;11.288;2023-02-11T01:05:39;24.33;;;14.83;;
12332;SDS011;6232;48.094;11.288;2023-02-11T01:08:25;29.33;;;15.17;;
12332;SDS011;6232;48.094;11.288;2023-02-11T01:11:11;36.27;;;16.50;;
12332;SDS011;6232;48.094;11.288;2023-02-11T01:13:57;34.67;;;16.40;;
12332;SDS011;6232;48.094;11.288;2023-02-11T01:16:42;38.50;;;16.00;;
12332;SDS011;6232;48.094;11.288;2023-02-11T01:19:28;26.83;;;13.97;;
12332;SDS011;6232;48.094;11.288;2023-02-11T01:22:14;32.43;;;18.00;;
12332;SDS011;6232;48.094;11.288;2023-02-11T01:24:59;26.63;;;16.00;;
12332;SDS011;6232;48.094;11.288;2023-02-11T01:27:45;28.03;;;15.50;;
12332;SDS011;6232;48.094;11.288;2023-02-11T01:30:30;32.67;;;16.00;;
12332;SDS011;6232;48.094;11.288;2023-02-11T01:33:16;31.50;;;15.87;;
12332;SDS011;6232;48.094;11.288;2023-02-11T01:36:02;38.53;;;16.90;;
12332;SDS011;6232;48.094;11.288;2023-02-11T01:38:49;27.00;;;14.87;;
12332;SDS011;6232;48.094;11.288;2023-02-11T01:41:34;33.57;;;14.33;;
12332;SDS011;6232;48.094;11.288;2023-02-11T01:44:25;29.20;;;15.40;;
12332;SDS011;6232;48.094;11.288;2023-02-11T01:47:11;25.33;;;13.70;;
12332;SDS011;6232;48.094;11.288;2023-02-11T01:49:56;32.17;;;16.20;;
12332;SDS011;6232;48.094;11.288;2023-02-11T01:52:43;31.83;;;14.83;;
12332;SDS011;6232;48.094;11.288;2023-02-11T01:55:31;30.23;;;14.10;;
12332;SDS011;6232;48.094;11.288;2023-02-11T01:58:36;35.00;;;16.00;;
12332;SDS011;6232;48.094;11.288;2023-02-11T02:01:23;31.30;;;15.30;;
12332;SDS011;6232;48.094;11.288;2023-02-11T02:04:10;22.80;;;13.40;;
12332;SDS011;6232;48.094;11.288;2023-02-11T02:07:02;27.97;;;14.80;;
12332;SDS011;6232;48.094;11.288;2023-02-11T02:09:51;30.20;;;14.80;;
12332;SDS011;6232;48.094;11.288;2023-02-11T02:12:39;21.50;;;12.50;;
12332;SDS011;6232;48.094;11.288;2023-02-11T02:15:29;35.07;;;14.30;;
12332;SDS011;6232;48.094;11.288;2023-02-11T02:18:20;34.00;;;15.90;;
12332;SDS011;6232;48.094;11.288;2023-02-11T02:24:03;24.30;;;12.87;;
12332;SDS011;6232;48.094;11.288;2023-02-11T02:33:08;23.63;;;14.60;;
12332;SDS011;6232;48.094;11.288;2023-02-11T02:39:08;27.03;;;11.50;;
12332;SDS011;6232;48.094;11.288;2023-02-11T02:41:54;29.30;;;12.33;;
12332;SDS011;6232;48.094;11.288;2023-02-11T02:44:46;26.63;;;13.23;;
12332;SDS011;6232;48.094;11.288;2023-02-11T02:47:32;22.70;;;14.47;;
12332;SDS011;6232;48.094;11.288;2023-02-11T02:50:19;22.30;;;12.10;;
12332;SDS011;6232;48.094;11.288;2023-02-11T02:53:28;32.90;;;12.07;;
12332;SDS011;6232;48.094;11.288;2023-02-11T02:59:08;28.10;;;11.73;;
12332;SDS011;6232;48.094;11.288;2023-02-11T03:05:10;28.30;;;12.50;;
12332;SDS011;6232;48.094;11.288;2023-02-11T03:08:01;22.43;;;11.67;;
12332;SDS011;6232;48.094;11.288;2023-02-11T03:10:50;20.90;;;11.87;;
12332;SDS011;6232;48.094;11.288;2023-02-11T03:13:37;22.00;;;12.33;;
12332;SDS011;6232;48.094;11.288;2023-02-11T03:16:24;19.27;;;12.40;;
12332;SDS011;6232;48.094;11.288;2023-02-11T03:19:12;30.67;;;12.23;;
12332;SDS011;6232;48.094;11.288;2023-02-11T03:21:58;21.70;;;10.67;;
12332;SDS011;6232;48.094;11.288;2023-02-11T03:24:44;20.20;;;10.57;;
12332;SDS011;6232;48.094;11.288;2023-02-11T03:28:15;21.80;;;11.33;;
12332;SDS011;6232;48.094;11.288;2023-02-11T03:30:50;14.13;;;10.67;;
12332;SDS011;6232;48.094;11.288;2023-02-11T03:33:39;20.30;;;10.97;;
12332;SDS011;6232;48.094;11.288;2023-02-11T03:36:32;19.53;;;10.13;;
12332;SDS011;6232;48.094;11.288;2023-02-11T03:39:23;16.10;;;10.53;;
12332;SDS011;6232;48.094;11.288;2023-02-11T03:42:10;15.87;;;10.60;;
12332;SDS011;6232;48.094;11.288;2023-02-11T03:45:02;17.87;;;10.57;;
12332;SDS011;6232;48.094;11.288;2023-02-11T03:48:10;16.63;;;8.70;;
12332;SDS011;6232;48.094;11.288;2023-02-11T03:50:57;14.70;;;10.83;;
12332;SDS011;6232;48.094;11.288;2023-02-11T03:53:44;14.70;;;9.67;;
12332;SDS011;6232;48.094;11.288;2023-02-11T03:56:33;19.23;;;9.30;;
12332;SDS011;6232;48.094;11.288;2023-02-11T03:59:20;17.03;;;9.33;;
12332;SDS011;6232;48.094;11.288;2023-02-11T04:02:05;20.30;;;9.97;;
12332;SDS011;6232;48.094;11.288;2023-02-11T04:04:51;24.40;;;10.80;;
12332;SDS011;6232;48.094;11.288;2023-02-11T04:07:36;18.57;;;8.97;;
12332;SDS011;6232;48.094;11.288;2023-02-11T04:10:22;14.03;;;8.30;;
12332;SDS011;6232;48.094;11.288;2023-02-11T04:13:07;18.33;;;11.17;;
12332;SDS011;6232;48.094;11.288;2023-02-11T04:15:53;20.87;;;9.23;;
12332;SDS011;6232;48.094;11.288;2023-02-11T04:18:38;23.03;;;10.70;;
12332;SDS011;6232;48.094;11.288;2023-02-11T04:21:24;15.93;;;9.30;;
12332;SDS011;6232;48.094;11.288;2023-02-11T04:24:10;18.90;;;8.53;;
12332;SDS011;6232;48.094;11.288;2023-02-11T04:26:55;21.27;;;10.27;;
12332;SDS011;6232;48.094;11.288;2023-02-11T04:29:41;18.00;;;9.80;;
12332;SDS011;6232;48.094;11.288;2023-02-11T04:32:26;20.60;;;10.67;;
12332;SDS011;6232;48.094;11.288;2023-02-11T04:35:12;17.30;;;9.60;;
12332;SDS011;6232;48.094;11.288;2023-02-11T04:37:57;16.63;;;9.23;;
12332;SDS011;6232;48.094;11.288;2023-02-11T04:40:43;25.00;;;9.20;;
12332;SDS011;6232;48.094;11.288;2023-02-11T04:43:29;16.50;;;9.80;;
12332;SDS011;6232;48.094;11.288;2023-02-11T04:46:14;14.20;;;8.93;;
12332;SDS011;6232;48.094;11.288;2023-02-11T04:49:00;17.33;;;8.93;;
12332;SDS011;6232;48.094;11.288;2023-02-11T04:51:45;16.73;;;9.40;;
12332;SDS011;6232;48.094;11.288;2023-02-11T04:54:31;16.50;;;9.60;;
12332;SDS011;6232;48.094;11.288;2023-02-11T04:57:16;14.00;;;9.97;;
12332;SDS011;6232;48.094;11.288;2023-02-11T05:00:02;16.90;;;10.20;;
12332;SDS011;6232;48.094;11.288;2023-02-11T05:02:48;18.27;;;9.27;;
12332;SDS011;6232;48.094;11.288;2023-02-11T05:05:36;16.23;;;7.87;;
12332;SDS011;6232;48.094;11.288;2023-02-11T05:08:22;18.83;;;10.43;;
12332;SDS011;6232;48.094;11.288;2023-02-11T05:11:08;23.13;;;10.33;;
12332;SDS011;6232;48.094;11.288;2023-02-11T05:13:58;20.60;;;9.70;;
12332;SDS011;6232;48.094;11.288;2023-02-11T05:16:44;17.77;;;8.20;;
12332;SDS011;6232;48.094;11.288;2023-02-11T05:19:29;13.27;;;8.00;;
12332;SDS011;6232;48.094;11.288;2023-02-11T05:22:16;11.50;;;8.70;;
12332;SDS011;6232;48.094;11.288;2023-02-11T05:25:01;15.40;;;9.37;;
12332;SDS011;6232;48.094;11.288;2023-02-11T05:27:47;10.87;;;7.17;;
12332;SDS011;6232;48.094;11.288;2023-02-11T05:30:33;9.47;;;8.07;;
12332;SDS011;6232;48.094;11.288;2023-02-11T05:33:18;13.97;;;7.37;;
12332;SDS011;6232;48.094;11.288;2023-02-11T05:36:06;13.37;;;9.07;;
12332;SDS011;6232;48.094;11.288;2023-02-11T05:38:52;14.30;;;7.90;;
12332;SDS011;6232;48.094;11.288;2023-02-11T05:41:38;17.90;;;8.80;;
12332;SDS011;6232;48.094;11.288;2023-02-11T05:44:23;17.77;;;7.90;;
12332;SDS011;6232;48.094;11.288;2023-02-11T05:47:09;12.10;;;8.30;;
12332;SDS011;6232;48.094;11.288;2023-02-11T05:49:54;13.60;;;8.43;;
12332;SDS011;6232;48.094;11.288;2023-02-11T05:52:40;14.70;;;8.60;;
12332;SDS011;6232;48.094;11.288;2023-02-11T05:55:25;11.80;;;7.67;;
12332;SDS011;6232;48.094;11.288;2023-02-11T05:58:11;15.13;;;7.10;;
12332;SDS011;6232;48.094;11.288;2023-02-11T06:00:56;13.73;;;8.60;;
12332;SDS011;6232;48.094;11.288;2023-02-11T06:03:42;18.50;;;7.90;;
12332;SDS011;6232;48.094;11.288;2023-02-11T06:06:27;14.10;;;8.93;;
12332;SDS011;6232;48.094;11.288;2023-02-11T06:09:13;15.20;;;7.80;;
12332;SDS011;6232;48.094;11.288;2023-02-11T06:11:58;13.10;;;7.90;;
12332;SDS011;6232;48.094;11.288;2023-02-11T06:14:44;15.43;;;9.00;;
12332;SDS011;6232;48.094;11.288;2023-02-11T06:17:29;10.87;;;7.80;;
12332;SDS011;6232;48.094;11.288;2023-02-11T06:20:17;12.50;;;7.00;;
12332;SDS011;6232;48.094;11.288;2023-02-11T06:23:03;9.33;;;7.20;;
12332;SDS011;6232;48.094;11.288;2023-02-11T06:25:49;11.10;;;7.93;;
12332;SDS011;6232;48.094;11.288;2023-02-11T06:28:34;13.53;;;6.10;;
12332;SDS011;6232;48.094;11.288;2023-02-11T06:31:20;10.70;;;6.10;;
12332;SDS011;6232;48.094;11.288;2023-02-11T06:34:09;10.30;;;6.70;;
12332;SDS011;6232;48.094;11.288;2023-02-11T06:36:54;11.73;;;6.30;;
12332;SDS011;6232;48.094;11.288;2023-02-11T06:39:40;13.27;;;6.50;;
12332;SDS011;6232;48.094;11.288;2023-02-11T06:42:25;7.70;;;5.87;;
12332;SDS011;6232;48.094;11.288;2023-02-11T06:45:11;13.77;;;5.40;;
12332;SDS011;6232;48.094;11.288;2023-02-11T06:47:57;10.63;;;5.93;;
12332;SDS011;6232;48.094;11.288;2023-02-11T06:50:43;8.03;;;5.90;;
12332;SDS011;6232;48.094;11.288;2023-02-11T06:53:28;8.77;;;6.50;;
12332;SDS011;6232;48.094;11.288;2023-02-11T06:56:15;10.60;;;5.83;;
12332;SDS011;6232;48.094;11.288;2023-02-11T06:59:00;13.50;;;6.50;;
12332;SDS011;6232;48.094;11.288;2023-02-11T07:01:46;9.60;;;5.63;;
12332;SDS011;6232;48.094;11.288;2023-02-11T07:04:32;12.40;;;6.27;;
12332;SDS011;6232;48.094;11.288;2023-02-11T07:07:17;8.13;;;5.63;;
12332;SDS011;6232;48.094;11.288;2023-02-11T07:10:03;8.83;;;5.17;;
12332;SDS011;6232;48.094;11.288;2023-02-11T07:12:50;10.90;;;6.80;;
12332;SDS011;6232;48.094;11.288;2023-02-11T07:15:35;9.57;;;5.93;;
12332;SDS011;6232;48.094;11.288;2023-02-11T07:18:21;7.43;;;6.37;;
12332;SDS011;6232;48.094;11.288;2023-02-11T07:21:07;9.40;;;5.50;;
12332;SDS011;6232;48.094;11.288;2023-02-11T07:23:53;9.20;;;5.63;;
12332;SDS011;6232;48.094;11.288;2023-02-11T07:26:38;8.50;;;5.50;;
12332;SDS011;6232;48.094;11.288;2023-02-11T07:29:24;17.37;;;6.70;;
12332;SDS011;6232;48.094;11.288;2023-02-11T07:32:10;16.13;;;5.67;;
12332;SDS011;6232;48.094;11.288;2023-02-11T07:34:55;10.50;;;6.00;;
12332;SDS011;6232;48.094;11.288;2023-02-11T07:37:41;14.30;;;6.37;;
12332;SDS011;6232;48.094;11.288;2023-02-11T07:40:26;9.53;;;5.87;;
12332;SDS011;6232;48.094;11.288;2023-02-11T07:43:12;8.10;;;5.53;;
12332;SDS011;6232;48.094;11.288;2023-02-11T07:45:57;9.90;;;6.30;;
12332;SDS011;6232;48.094;11.288;2023-02-11T07:48:43;13.73;;;5.93;;
12332;SDS011;6232;48.094;11.288;2023-02-11T07:51:29;5.47;;;4.33;;
12332;SDS011;6232;48.094;11.288;2023-02-11T07:54:15;7.43;;;6.17;;
12332;SDS011;6232;48.094;11.288;2023-02-11T07:57:00;19.23;;;5.73;;
12332;SDS011;6232;48.094;11.288;2023-02-11T07:59:46;8.00;;;5.67;;
12332;SDS011;6232;48.094;11.288;2023-02-11T08:02:31;10.97;;;5.77;;
12332;SDS011;6232;48.094;11.288;2023-02-11T08:05:17;10.03;;;5.40;;
12332;SDS011;6232;48.094;11.288;2023-02-11T08:08:02;11.63;;;6.77;;
12332;SDS011;6232;48.094;11.288;2023-02-11T08:10:48;23.13;;;7.67;;
12332;SDS011;6232;48.094;11.288;2023-02-11T08:13:34;9.03;;;5.83;;
12332;SDS011;6232;48.094;11.288;2023-02-11T08:16:21;8.90;;;6.70;;
12332;SDS011;6232;48.094;11.288;2023-02-11T08:19:07;10.93;;;7.10;;
12332;SDS011;6232;48.094;11.288;2023-02-11T08:21:54;10.60;;;7.03;;
12332;SDS011;6232;48.094;11.288;2023-02-11T08:24:41;13.87;;;7.70;;
12332;SDS011;6232;48.094;11.288;2023-02-11T08:27:26;11.60;;;7.30;;
12332;SDS011;6232;48.094;11.288;2023-02-11T08:30:12;14.00;;;8.27;;
12332;SDS011;6232;48.094;11.288;2023-02-11T08:32:58;15.20;;;7.47;;
12332;SDS011;6232;48.094;11.288;2023-02-11T08:35:44;10.40;;;7.17;;
12332;SDS011;6232;48.094;11.288;2023-02-11T08:38:29;13.60;;;8.87;;
12332;SDS011;6232;48.094;11.288;2023-02-11T08:41:15;14.30;;;6.97;;
12332;SDS011;6232;48.094;11.288;2023-02-11T08:44:01;17.37;;;7.30;;
12332;SDS011;6232;48.094;11.288;2023-02-11T08:46:47;12.70;;;7.80;;
12332;SDS011;6232;48.094;11.288;2023-02-11T08:49:32;18.00;;;8.60;;
12332;SDS011;6232;48.094;11.288;2023-02-11T08:52:18;14.13;;;7.80;;
12332;SDS011;6232;48.094;11.288;2023-02-11T08:55:04;11.87;;;6.97;;
12332;SDS011;6232;48.094;11.288;2023-02-11T08:57:50;9.83;;;6.67;;
12332;SDS011;6232;48.094;11.288;2023-02-11T09:00:36;16.47;;;8.37;;
12332;SDS011;6232;48.094;11.288;2023-02-11T09:03:21;14.10;;;7.83;;
12332;SDS011;6232;48.094;11.288;2023-02-11T09:06:08;16.90;;;8.03;;
12332;SDS011;6232;48.094;11.288;2023-02-11T09:08:54;13.40;;;8.23;;
12332;SDS011;6232;48.094;11.288;2023-02-11T09:11:41;10.97;;;8.03;;
12332;SDS011;6232;48.094;11.288;2023-02-11T09:14:27;18.87;;;9.07;;
12332;SDS011;6232;48.094;11.288;2023-02-11T09:17:12;17.63;;;8.63;;
12332;SDS011;6232;48.094;11.288;2023-02-11T09:19:58;12.03;;;8.17;;
12332;SDS011;6232;48.094;11.288;2023-02-11T09:22:43;12.63;;;8.00;;
12332;SDS011;6232;48.094;11.288;2023-02-11T09:25:29;13.50;;;8.20;;
12332;SDS011;6232;48.094;11.288;2023-02-11T09:28:14;18.30;;;8.77;;
12332;SDS011;6232;48.094;11.288;2023-02-11T09:31:04;14.87;;;8.83;;
12332;SDS011;6232;48.094;11.288;2023-02-11T09:33:51;11.30;;;8.50;;
12332;SDS011;6232;48.094;11.288;2023-02-11T09:36:37;11.67;;;7.73;;
12332;SDS011;6232;48.094;11.288;2023-02-11T09:39:23;18.43;;;9.17;;
12332;SDS011;6232;48.094;11.288;2023-02-11T09:45:22;12.80;;;8.37;;
12332;SDS011;6232;48.094;11.288;2023-02-11T09:51:00;14.37;;;7.47;;
12332;SDS011;6232;48.094;11.288;2023-02-11T09:53:47;16.20;;;8.30;;
12332;SDS011;6232;48.094;11.288;2023-02-11T09:56:35;11.40;;;8.03;;
12332;SDS011;6232;48.094;11.288;2023-02-11T09:59:21;15.60;;;9.20;;
12332;SDS011;6232;48.094;11.288;2023-02-11T10:02:16;14.40;;;9.80;;
12332;SDS011;6232;48.094;11.288;2023-02-11T10:05:20;15.83;;;8.50;;
12332;SDS011;6232;48.094;11.288;2023-02-11T10:08:27;22.47;;;8.80;;
12332;SDS011;6232;48.094;11.288;2023-02-11T10:11:35;18.63;;;8.40;;
12332;SDS011;6232;48.094;11.288;2023-02-11T10:20:14;16.13;;;9.20;;
12332;SDS011;6232;48.094;11.288;2023-02-11T10:23:16;24.80;;;9.50;;
12332;SDS011;6232;48.094;11.288;2023-02-11T10:26:07;17.50;;;8.90;;
12332;SDS011;6232;48.094;11.288;2023-02-11T10:28:57;11.80;;;7.77;;
12332;SDS011;6232;48.094;11.288;2023-02-11T10:31:43;13.70;;;7.93;;
12332;SDS011;6232;48.094;11.288;2023-02-11T10:34:30;17.60;;;8.07;;
12332;SDS011;6232;48.094;11.288;2023-02-11T10:37:16;12.57;;;8.27;;
12332;SDS011;6232;48.094;11.288;2023-02-11T10:40:01;22.73;;;9.20;;
12332;SDS011;6232;48.094;11.288;2023-02-11T10:42:51;14.67;;;7.40;;
12332;SDS011;6232;48.094;11.288;2023-02-11T10:51:28;15.90;;;8.27;;
12332;SDS011;6232;48.094;11.288;2023-02-11T10:54:17;16.80;;;8.23;;
12332;SDS011;6232;48.094;11.288;2023-02-11T10:57:05;15.97;;;8.80;;
12332;SDS011;6232;48.094;11.288;2023-02-11T10:59:55;12.00;;;7.70;;
12332;SDS011;6232;48.094;11.288;2023-02-11T11:02:41;13.30;;;7.50;;
12332;SDS011;6232;48.094;11.288;2023-02-11T11:05:30;16.40;;;7.93;;
12332;SDS011;6232;48.094;11.288;2023-02-11T11:08:16;18.10;;;8.57;;
12332;SDS011;6232;48.094;11.288;2023-02-11T11:11:04;15.37;;;8.90;;
12332;SDS011;6232;48.094;11.288;2023-02-11T11:16:38;18.87;;;8.37;;
12332;SDS011;6232;48.094;11.288;2023-02-11T11:19:36;19.40;;;8.60;;
12332;SDS011;6232;48.094;11.288;2023-02-11T11:22:23;16.03;;;9.40;;
12332;SDS011;6232;48.094;11.288;2023-02-11T11:28:15;18.13;;;9.73;;
12332;SDS011;6232;48.094;11.288;2023-02-11T11:31:02;17.27;;;9.00;;
12332;SDS011;6232;48.094;11.288;2023-02-11T11:33:47;22.47;;;9.00;;
12332;SDS011;6232;48.094;11.288;2023-02-11T11:36:35;13.70;;;8.43;;
12332;SDS011;6232;48.094;11.288;2023-02-11T11:39:24;22.70;;;8.90;;
12332;SDS011;6232;48.094;11.288;2023-02-11T11:42:27;13.50;;;9.30;;
12332;SDS011;6232;48.094;11.288;2023-02-11T11:48:25;16.80;;;9.20;;
12332;SDS011;6232;48.094;11.288;2023-02-11T11:51:12;17.90;;;9.40;;
12332;SDS011;6232;48.094;11.288;2023-02-11T11:54:02;17.33;;;7.97;;
12332;SDS011;6232;48.094;11.288;2023-02-11T12:00:03;12.20;;;8.00;;
12332;SDS011;6232;48.094;11.288;2023-02-11T12:02:55;13.60;;;7.57;;
12332;SDS011;6232;48.094;11.288;2023-02-11T12:05:48;14.10;;;8.37;;
12332;SDS011;6232;48.094;11.288;2023-02-11T12:20:45;11.87;;;7.53;;
12332;SDS011;6232;48.094;11.288;2023-02-11T12:23:37;13.70;;;7.30;;
12332;SDS011;6232;48.094;11.288;2023-02-11T12:29:19;13.63;;;7.67;;
12332;SDS011;6232;48.094;11.288;2023-02-11T12:32:21;12.63;;;7.80;;
12332;SDS011;6232;48.094;11.288;2023-02-11T12:38:34;11.53;;;7.20;;
12332;SDS011;6232;48.094;11.288;2023-02-11T12:44:37;10.67;;;6.67;;
12332;SDS011;6232;48.094;11.288;2023-02-11T12:47:31;15.40;;;7.03;;
12332;SDS011;6232;48.094;11.288;2023-02-11T12:53:34;10.77;;;6.40;;
12332;SDS011;6232;48.094;11.288;2023-02-11T12:56:23;14.13;;;7.00;;
12332;SDS011;6232;48.094;11.288;2023-02-11T12:59:21;21.30;;;6.60;;
12332;SDS011;6232;48.094;11.288;2023-02-11T13:02:33;15.70;;;8.00;;
12332;SDS011;6232;48.094;11.288;2023-02-11T13:05:36;12.97;;;7.40;;
12332;SDS011;6232;48.094;11.288;2023-02-11T13:08:32;14.17;;;5.97;;
12332;SDS011;6232;48.094;11.288;2023-02-11T13:17:16;8.80;;;5.77;;
12332;SDS011;6232;48.094;11.288;2023-02-11T13:20:27;11.57;;;6.17;;
12332;SDS011;6232;48.094;11.288;2023-02-11T13:23:19;9.80;;;6.80;;
12332;SDS011;6232;48.094;11.288;2023-02-11T13:26:13;9.90;;;6.63;;
12332;SDS011;6232;48.094;11.288;2023-02-11T13:31:55;12.00;;;5.80;;
12332;SDS011;6232;48.094;11.288;2023-02-11T13:37:37;10.50;;;6.60;;
12332;SDS011;6232;48.094;11.288;2023-02-11T13:40:27;14.30;;;7.13;;
12332;SDS011;6232;48.094;11.288;2023-02-11T13:43:19;9.90;;;7.10;;
12332;SDS011;6232;48.094;11.288;2023-02-11T13:46:05;7.93;;;6.13;;
12332;SDS011;6232;48.094;11.288;2023-02-11T13:48:54;12.63;;;6.17;;
12332;SDS011;6232;48.094;11.288;2023-02-11T13:51:41;10.53;;;6.10;;
12332;SDS011;6232;48.094;11.288;2023-02-11T13:54:29;9.47;;;7.77;;
12332;SDS011;6232;48.094;11.288;2023-02-11T14:06:16;13.73;;;6.70;;
12332;SDS011;6232;48.094;11.288;2023-02-11T14:12:23;13.30;;;7.10;;
12332;SDS011;6232;48.094;11.288;2023-02-11T14:17:56;11.90;;;6.70;;
12332;SDS011;6232;48.094;11.288;2023-02-11T14:20:41;10.43;;;6.43;;
12332;SDS011;6232;48.094;11.288;2023-02-11T14:23:28;8.20;;;5.70;;
12332;SDS011;6232;48.094;11.288;2023-02-11T14:26:21;9.50;;;6.40;;
12332;SDS011;6232;48.094;11.288;2023-02-11T14:29:23;15.40;;;8.07;;
12332;SDS011;6232;48.094;11.288;2023-02-11T14:35:31;11.10;;;6.27;;
12332;SDS011;6232;48.094;11.288;2023-02-11T14:39:04;11.33;;;6.60;;
12332;SDS011;6232;48.094;11.288;2023-02-11T14:41:30;10.70;;;6.83;;
12332;SDS011;6232;48.094;11.288;2023-02-11T14:44:20;9.73;;;7.10;;
12332;SDS011;6232;48.094;11.288;2023-02-11T14:47:10;13.70;;;7.53;;
12332;SDS011;6232;48.094;11.288;2023-02-11T14:49:57;10.93;;;7.63;;
12332;SDS011;6232;48.094;11.288;2023-02-11T14:52:42;14.63;;;8.73;;
12332;SDS011;6232;48.094;11.288;2023-02-11T14:55:32;15.50;;;9.20;;
12332;SDS011;6232;48.094;11.288;2023-02-11T14:58:20;15.40;;;8.67;;
12332;SDS011;6232;48.094;11.288;2023-02-11T15:01:23;15.77;;;8.70;;
12332;SDS011;6232;48.094;11.288;2023-02-11T15:04:22;13.63;;;8.50;;
12332;SDS011;6232;48.094;11.288;2023-02-11T15:07:09;12.83;;;8.83;;
12332;SDS011;6232;48.094;11.288;2023-02-11T15:09:56;13.90;;;8.40;;
12332;SDS011;6232;48.094;11.288;2023-02-11T15:12:43;12.47;;;9.10;;
12332;SDS011;6232;48.094;11.288;2023-02-11T15:15:31;19.40;;;10.20;;
12332;SDS011;6232;48.094;11.288;2023-02-11T15:18:20;20.00;;;9.77;;
12332;SDS011;6232;48.094;11.288;2023-02-11T15:21:07;18.00;;;9.00;;
12332;SDS011;6232;48.094;11.288;2023-02-11T15:23:54;19.57;;;11.17;;
12332;SDS011;6232;48.094;11.288;2023-02-11T15:26:40;17.70;;;9.30;;
12332;SDS011;6232;48.094;11.288;2023-02-11T15:29:36;16.90;;;11.30;;
12332;SDS011;6232;48.094;11.288;2023-02-11T15:32:23;20.20;;;11.07;;
12332;SDS011;6232;48.094;11.288;2023-02-11T15:35:10;14.47;;;9.90;;
12332;SDS011;6232;48.094;11.288;2023-02-11T15:37:56;17.30;;;10.60;;
12332;SDS011;6232;48.094;11.288;2023-02-11T15:40:50;16.73;;;9.37;;
12332;SDS011;6232;48.094;11.288;2023-02-11T15:43:40;15.60;;;9.83;;
12332;SDS011;6232;48.094;11.288;2023-02-11T15:46:25;17.40;;;10.83;;
12332;SDS011;6232;48.094;11.288;2023-02-11T15:49:14;17.10;;;10.10;;
12332;SDS011;6232;48.094;11.288;2023-02-11T15:52:03;20.60;;;11.13;;
12332;SDS011;6232;48.094;11.288;2023-02-11T15:54:49;21.40;;;12.30;;
12332;SDS011;6232;48.094;11.288;2023-02-11T15:57:35;16.60;;;10.73;;
12332;SDS011;6232;48.094;11.288;2023-02-11T16:00:21;23.60;;;11.20;;
12332;SDS011;6232;48.094;11.288;2023-02-11T16:03:15;27.13;;;12.17;;
12332;SDS011;6232;48.094;11.288;2023-02-11T16:06:25;19.37;;;11.37;;
12332;SDS011;6232;48.094;11.288;2023-02-11T16:11:58;17.50;;;11.07;;
12332;SDS011;6232;48.094;11.288;2023-02-11T16:14:44;18.63;;;10.93;;
12332;SDS011;6232;48.094;11.288;2023-02-11T16:17:29;21.70;;;11.47;;
12332;SDS011;6232;48.094;11.288;2023-02-11T16:20:18;19.20;;;10.03;;
12332;SDS011;6232;48.094;11.288;2023-02-11T16:23:04;20.43;;;11.33;;
12332;SDS011;6232;48.094;11.288;2023-02-11T16:25:52;24.20;;;10.13;;
12332;SDS011;6232;48.094;11.288;2023-02-11T16:28:39;23.47;;;11.70;;
12332;SDS011;6232;48.094;11.288;2023-02-11T16:31:31;18.37;;;9.93;;
12332;SDS011;6232;48.094;11.288;2023-02-11T16:34:17;22.33;;;11.10;;
12332;SDS011;6232;48.094;11.288;2023-02-11T16:37:04;22.43;;;9.97;;
12332;SDS011;6232;48.094;11.288;2023-02-11T16:39:53;23.63;;;11.20;;
12332;SDS011;6232;48.094;11.288;2023-02-11T16:42:39;24.37;;;13.67;;
12332;SDS011;6232;48.094;11.288;2023-02-11T16:45:24;21.93;;;10.90;;
12332;SDS011;6232;48.094;11.288;2023-02-11T16:48:11;25.27;;;11.40;;
12332;SDS011;6232;48.094;11.288;2023-02-11T16:50:59;25.30;;;10.93;;
12332;SDS011;6232;48.094;11.288;2023-02-11T16:53:45;22.37;;;11.70;;
12332;SDS011;6232;48.094;11.288;2023-02-11T16:56:30;31.73;;;12.07;;
12332;SDS011;6232;48.094;11.288;2023-02-11T16:59:16;39.80;;;11.40;;
12332;SDS011;6232;48.094;11.288;2023-02-11T17:02:01;26.17;;;11.57;;
12332;SDS011;6232;48.094;11.288;2023-02-11T17:04:47;22.57;;;11.50;;
12332;SDS011;6232;48.094;11.288;2023-02-11T17:07:33;22.37;;;10.53;;
12332;SDS011;6232;48.094;11.288;2023-02-11T17:10:20;20.93;;;10.03;;
12332;SDS011;6232;48.094;11.288;2023-02-11T17:13:05;22.40;;;11.90;;
12332;SDS011;6232;48.094;11.288;2023-02-11T17:15:51;23.50;;;11.00;;
12332;SDS011;6232;48.094;11.288;2023-02-11T17:18:36;32.43;;;11.20;;
12332;SDS011;6232;48.094;11.288;2023-02-11T17:21:23;22.63;;;11.60;;
12332;SDS011;6232;48.094;11.288;2023-02-11T17:24:10;36.83;;;9.63;;
12332;SDS011;6232;48.094;11.288;2023-02-11T17:26:55;24.40;;;11.20;;
12332;SDS011;6232;48.094;11.288;2023-02-11T17:29:41;17.23;;;9.67;;
12332;SDS011;6232;48.094;11.288;2023-02-11T17:32:26;20.67;;;11.47;;
12332;SDS011;6232;48.094;11.288;2023-02-11T17:35:12;23.07;;;10.27;;
12332;SDS011;6232;48.094;11.288;2023-02-11T17:37:57;21.87;;;10.50;;
12332;SDS011;6232;48.094;11.288;2023-02-11T17:40:43;25.13;;;11.23;;
12332;SDS011;6232;48.094;11.288;2023-02-11T17:43:29;19.73;;;8.87;;
12332;SDS011;6232;48.094;11.288;2023-02-11T17:46:15;17.90;;;10.10;;
12332;SDS011;6232;48.094;11.288;2023-02-11T17:49:01;17.93;;;10.87;;
12332;SDS011;6232;48.094;11.288;2023-02-11T17:51:46;21.27;;;9.37;;
12332;SDS011;6232;48.094;11.288;2023-02-11T17:54:32;21.20;;;10.40;;
12332;SDS011;6232;48.094;11.288;2023-02-11T17:57:17;24.13;;;9.73;;
12332;SDS011;6232;48.094;11.288;2023-02-11T18:00:04;21.87;;;10.33;;
12332;SDS011;6232;48.094;11.288;2023-02-11T18:02:50;18.87;;;11.20;;
12332;SDS011;6232;48.094;11.288;2023-02-11T18:05:36;21.80;;;10.80;;
12332;SDS011;6232;48.094;11.288;2023-02-11T18:08:21;22.17;;;10.50;;
12332;SDS011;6232;48.094;11.288;2023-02-11T18:11:08;19.57;;;10.63;;
12332;SDS011;6232;48.094;11.288;2023-02-11T18:13:54;18.70;;;10.50;;
12332;SDS011;6232;48.094;11.288;2023-02-11T18:16:39;28.90;;;11.00;;
12332;SDS011;6232;48.094;11.288;2023-02-11T18:19:27;18.40;;;11.47;;